Terminal Aerodrome Forecast
Issued by NWS

Home | Current Version | Previous Version | Text Only | Print | Product List | Glossary On
Versions: 1 2 3 4 5 6 7 8 9 10 11 12 13 14 15 16 17 18 19 20 21 22 23 24 25 26 27 28
000
FTUS43 KDTX 180500
TAFYIP
TAF
KYIP 180523Z 1806/1906 VRB03KT P6SM SKC
     FM181000 36005KT P6SM SCT060
     FM181300 01006KT P6SM SCT018 BKN028
     FM181600 03008KT P6SM BKN040
     FM182300 02004KT P6SM SKC=

USA.gov is the U.S. government's official web portal to all federal, state and local government web resources and services.